National Weather Service Raw Text Product

Displaying AFOS PIL: TAFALO Received: 2018-02-09 10:11 UTC


441 
FTUS43 KDMX 091011 AAB
TAFALO
TAF AMD
KALO 091011Z 0910/1006 02015KT 6SM -SN SCT007 OVC040
     FM091100 02012G18KT P6SM OVC023
     FM091600 01010G16KT P6SM SCT150
     FM100000 35007KT P6SM BKN150=